In Rescue
 
Open Full Screen Window  High Contrast Mode
January 20, 2022 8:07 AM EST
Weather Information
Wind Direction
  ---
Wind Speed
  00 kt (0 mph)
Wind Gust
  00 kt (0 mph)
Altimeter
30.29 in
Visibility
10 SM
Temperature
-07° C
19° F
Dewpoint
-12° C
10° F
Humidity
68%
1hr Rain Fall
00.00 in.
24hr Rain Fall
00.33 in.
Sky Condition
Overcast @ 3,200 ft
VFR

METAR KPOV 201307Z AUTO 00000KT 10SM OVC032 M07/M12 A3029 RMK AO2 T10731117 PWINO

FAA Disclaimer: The data displayed is for advisory purposes only and is not to be used for flight planning or operations.